sensor_id;sensor_type;location;lat;lon;timestamp;temperature;humidity
28460;DHT22;32528;45.712;9.192;2023-11-21T00:00:36;11.60;98.10
28460;DHT22;32528;45.712;9.192;2023-11-21T00:02:37;11.60;98.10
28460;DHT22;32528;45.712;9.192;2023-11-21T00:04:40;11.60;98.20
28460;DHT22;32528;45.712;9.192;2023-11-21T00:06:41;11.50;98.20
28460;DHT22;32528;45.712;9.192;2023-11-21T00:08:41;11.60;98.30
28460;DHT22;32528;45.712;9.192;2023-11-21T00:10:42;11.60;98.30
28460;DHT22;32528;45.712;9.192;2023-11-21T00:12:43;11.50;98.30
28460;DHT22;32528;45.712;9.192;2023-11-21T00:14:44;11.50;98.30
28460;DHT22;32528;45.712;9.192;2023-11-21T00:16:45;11.50;98.60
28460;DHT22;32528;45.712;9.192;2023-11-21T00:18:45;11.50;98.20
28460;DHT22;32528;45.712;9.192;2023-11-21T00:20:47;11.50;98.10
28460;DHT22;32528;45.712;9.192;2023-11-21T00:22:47;11.50;98.10
28460;DHT22;32528;45.712;9.192;2023-11-21T00:24:48;11.50;98.20
28460;DHT22;32528;45.712;9.192;2023-11-21T00:26:49;11.50;98.20
28460;DHT22;32528;45.712;9.192;2023-11-21T00:28:50;11.60;98.20
28460;DHT22;32528;45.712;9.192;2023-11-21T00:30:51;11.60;98.20
28460;DHT22;32528;45.712;9.192;2023-11-21T00:32:52;11.60;98.20
28460;DHT22;32528;45.712;9.192;2023-11-21T00:34:53;11.70;98.20
28460;DHT22;32528;45.712;9.192;2023-11-21T00:36:56;11.60;98.20
28460;DHT22;32528;45.712;9.192;2023-11-21T00:38:56;11.60;98.20
28460;DHT22;32528;45.712;9.192;2023-11-21T00:40:57;11.70;98.50
28460;DHT22;32528;45.712;9.192;2023-11-21T00:42:58;11.70;98.10
28460;DHT22;32528;45.712;9.192;2023-11-21T00:44:59;11.70;98.00
28460;DHT22;32528;45.712;9.192;2023-11-21T00:47:00;11.70;98.20
28460;DHT22;32528;45.712;9.192;2023-11-21T00:49:01;11.50;98.40
28460;DHT22;32528;45.712;9.192;2023-11-21T00:51:01;11.50;98.50
28460;DHT22;32528;45.712;9.192;2023-11-21T00:53:02;11.50;98.60
28460;DHT22;32528;45.712;9.192;2023-11-21T00:55:06;11.50;98.50
28460;DHT22;32528;45.712;9.192;2023-11-21T00:57:08;11.50;98.50
28460;DHT22;32528;45.712;9.192;2023-11-21T00:59:09;11.60;98.50
28460;DHT22;32528;45.712;9.192;2023-11-21T01:01:09;11.60;98.30
28460;DHT22;32528;45.712;9.192;2023-11-21T01:03:10;11.50;98.40
28460;DHT22;32528;45.712;9.192;2023-11-21T01:05:11;11.60;98.60
28460;DHT22;32528;45.712;9.192;2023-11-21T01:07:12;11.50;98.50
28460;DHT22;32528;45.712;9.192;2023-11-21T01:09:13;11.60;98.60
28460;DHT22;32528;45.712;9.192;2023-11-21T01:11:14;11.50;98.60
28460;DHT22;32528;45.712;9.192;2023-11-21T01:13:15;11.50;99.00
28460;DHT22;32528;45.712;9.192;2023-11-21T01:15:16;11.50;98.60
28460;DHT22;32528;45.712;9.192;2023-11-21T01:17:16;11.50;98.60
28460;DHT22;32528;45.712;9.192;2023-11-21T01:19:18;11.50;98.60
28460;DHT22;32528;45.712;9.192;2023-11-21T01:21:19;11.50;98.50
28460;DHT22;32528;45.712;9.192;2023-11-21T01:23:20;11.50;98.50
28460;DHT22;32528;45.712;9.192;2023-11-21T01:25:21;11.50;98.50
28460;DHT22;32528;45.712;9.192;2023-11-21T01:27:23;11.60;98.50
28460;DHT22;32528;45.712;9.192;2023-11-21T01:29:24;11.60;98.50
28460;DHT22;32528;45.712;9.192;2023-11-21T01:31:25;11.60;98.40
28460;DHT22;32528;45.712;9.192;2023-11-21T01:33:29;11.60;98.30
28460;DHT22;32528;45.712;9.192;2023-11-21T01:35:30;11.60;98.30
28460;DHT22;32528;45.712;9.192;2023-11-21T01:37:31;11.60;98.30
28460;DHT22;32528;45.712;9.192;2023-11-21T01:39:31;11.60;98.10
28460;DHT22;32528;45.712;9.192;2023-11-21T01:41:32;11.60;98.10
28460;DHT22;32528;45.712;9.192;2023-11-21T01:43:33;11.60;98.10
28460;DHT22;32528;45.712;9.192;2023-11-21T01:45:34;11.70;98.00
28460;DHT22;32528;45.712;9.192;2023-11-21T01:47:35;11.70;97.90
28460;DHT22;32528;45.712;9.192;2023-11-21T01:49:37;11.60;97.90
28460;DHT22;32528;45.712;9.192;2023-11-21T01:51:39;11.70;98.00
28460;DHT22;32528;45.712;9.192;2023-11-21T01:53:40;11.60;97.90
28460;DHT22;32528;45.712;9.192;2023-11-21T01:55:42;11.60;98.00
28460;DHT22;32528;45.712;9.192;2023-11-21T01:57:47;11.60;98.00
28460;DHT22;32528;45.712;9.192;2023-11-21T01:59:49;11.60;98.20
28460;DHT22;32528;45.712;9.192;2023-11-21T02:01:50;11.60;98.10
28460;DHT22;32528;45.712;9.192;2023-11-21T02:03:51;11.60;98.10
28460;DHT22;32528;45.712;9.192;2023-11-21T02:05:55;11.60;98.20
28460;DHT22;32528;45.712;9.192;2023-11-21T02:07:55;11.50;98.20
28460;DHT22;32528;45.712;9.192;2023-11-21T02:09:57;11.50;98.30
28460;DHT22;32528;45.712;9.192;2023-11-21T02:11:57;11.50;98.30
28460;DHT22;32528;45.712;9.192;2023-11-21T02:13:59;11.50;98.40
28460;DHT22;32528;45.712;9.192;2023-11-21T02:16:01;11.40;98.40
28460;DHT22;32528;45.712;9.192;2023-11-21T02:18:02;11.40;98.60
28460;DHT22;32528;45.712;9.192;2023-11-21T02:20:04;11.40;98.60
28460;DHT22;32528;45.712;9.192;2023-11-21T02:22:07;11.50;98.60
28460;DHT22;32528;45.712;9.192;2023-11-21T02:24:08;11.40;98.60
28460;DHT22;32528;45.712;9.192;2023-11-21T02:26:09;11.40;98.70
28460;DHT22;32528;45.712;9.192;2023-11-21T02:28:10;11.40;98.70
28460;DHT22;32528;45.712;9.192;2023-11-21T02:30:14;11.30;98.70
28460;DHT22;32528;45.712;9.192;2023-11-21T02:32:14;11.30;99.00
28460;DHT22;32528;45.712;9.192;2023-11-21T02:34:17;11.30;98.80
28460;DHT22;32528;45.712;9.192;2023-11-21T02:36:18;11.30;98.80
28460;DHT22;32528;45.712;9.192;2023-11-21T02:38:22;11.40;98.80
28460;DHT22;32528;45.712;9.192;2023-11-21T02:40:22;11.40;98.80
28460;DHT22;32528;45.712;9.192;2023-11-21T02:42:25;11.40;98.80
28460;DHT22;32528;45.712;9.192;2023-11-21T02:44:25;11.40;98.80
28460;DHT22;32528;45.712;9.192;2023-11-21T02:46:26;11.40;98.80
28460;DHT22;32528;45.712;9.192;2023-11-21T02:48:27;11.40;98.70
28460;DHT22;32528;45.712;9.192;2023-11-21T02:50:28;11.50;98.70
28460;DHT22;32528;45.712;9.192;2023-11-21T02:52:30;11.50;98.60
28460;DHT22;32528;45.712;9.192;2023-11-21T02:54:33;11.50;98.60
28460;DHT22;32528;45.712;9.192;2023-11-21T02:56:36;11.50;98.50
28460;DHT22;32528;45.712;9.192;2023-11-21T02:58:40;11.50;98.60
28460;DHT22;32528;45.712;9.192;2023-11-21T03:00:41;11.60;98.60
28460;DHT22;32528;45.712;9.192;2023-11-21T03:02:42;11.50;98.60
28460;DHT22;32528;45.712;9.192;2023-11-21T03:04:44;11.50;98.70
28460;DHT22;32528;45.712;9.192;2023-11-21T03:06:45;11.60;98.70
28460;DHT22;32528;45.712;9.192;2023-11-21T03:08:46;11.50;98.70
28460;DHT22;32528;45.712;9.192;2023-11-21T03:10:47;11.50;98.60
28460;DHT22;32528;45.712;9.192;2023-11-21T03:12:48;11.50;98.60
28460;DHT22;32528;45.712;9.192;2023-11-21T03:14:48;11.50;98.70
28460;DHT22;32528;45.712;9.192;2023-11-21T03:16:49;11.50;98.80
28460;DHT22;32528;45.712;9.192;2023-11-21T03:18:50;11.50;98.90
28460;DHT22;32528;45.712;9.192;2023-11-21T03:20:53;11.40;99.00
28460;DHT22;32528;45.712;9.192;2023-11-21T03:22:54;11.40;99.00
28460;DHT22;32528;45.712;9.192;2023-11-21T03:24:54;11.30;99.00
28460;DHT22;32528;45.712;9.192;2023-11-21T03:26:55;11.30;99.20
28460;DHT22;32528;45.712;9.192;2023-11-21T03:28:57;11.20;99.20
28460;DHT22;32528;45.712;9.192;2023-11-21T03:30:58;11.20;99.30
28460;DHT22;32528;45.712;9.192;2023-11-21T03:32:58;11.10;99.30
28460;DHT22;32528;45.712;9.192;2023-11-21T03:34:59;11.00;99.40
28460;DHT22;32528;45.712;9.192;2023-11-21T03:37:00;11.00;99.50
28460;DHT22;32528;45.712;9.192;2023-11-21T03:39:01;10.90;99.50
28460;DHT22;32528;45.712;9.192;2023-11-21T03:41:02;10.90;99.50
28460;DHT22;32528;45.712;9.192;2023-11-21T03:43:03;10.90;99.60
28460;DHT22;32528;45.712;9.192;2023-11-21T03:45:05;10.90;99.90
28460;DHT22;32528;45.712;9.192;2023-11-21T03:47:06;10.90;99.70
28460;DHT22;32528;45.712;9.192;2023-11-21T03:49:08;10.90;99.70
28460;DHT22;32528;45.712;9.192;2023-11-21T03:51:09;10.80;99.70
28460;DHT22;32528;45.712;9.192;2023-11-21T03:53:09;10.90;99.80
28460;DHT22;32528;45.712;9.192;2023-11-21T03:55:10;10.90;99.80
28460;DHT22;32528;45.712;9.192;2023-11-21T03:57:12;10.90;99.70
28460;DHT22;32528;45.712;9.192;2023-11-21T03:59:13;10.90;99.70
28460;DHT22;32528;45.712;9.192;2023-11-21T04:01:23;10.90;99.70
28460;DHT22;32528;45.712;9.192;2023-11-21T04:03:24;11.00;99.70
28460;DHT22;32528;45.712;9.192;2023-11-21T04:05:25;11.00;99.90
28460;DHT22;32528;45.712;9.192;2023-11-21T04:07:26;11.00;99.90
28460;DHT22;32528;45.712;9.192;2023-11-21T04:09:27;11.00;99.60
28460;DHT22;32528;45.712;9.192;2023-11-21T04:11:28;11.00;99.90
28460;DHT22;32528;45.712;9.192;2023-11-21T04:13:30;11.10;99.50
28460;DHT22;32528;45.712;9.192;2023-11-21T04:15:31;11.10;99.50
28460;DHT22;32528;45.712;9.192;2023-11-21T04:17:31;11.00;99.60
28460;DHT22;32528;45.712;9.192;2023-11-21T04:19:32;11.00;99.60
28460;DHT22;32528;45.712;9.192;2023-11-21T04:21:33;11.00;99.70
28460;DHT22;32528;45.712;9.192;2023-11-21T04:23:35;11.00;99.60
28460;DHT22;32528;45.712;9.192;2023-11-21T04:25:36;11.00;99.50
28460;DHT22;32528;45.712;9.192;2023-11-21T04:27:39;11.00;99.50
28460;DHT22;32528;45.712;9.192;2023-11-21T04:29:40;10.90;99.60
28460;DHT22;32528;45.712;9.192;2023-11-21T04:31:42;10.90;99.70
28460;DHT22;32528;45.712;9.192;2023-11-21T04:33:43;10.80;99.80
28460;DHT22;32528;45.712;9.192;2023-11-21T04:35:45;10.80;99.80
28460;DHT22;32528;45.712;9.192;2023-11-21T04:37:46;10.90;99.80
28460;DHT22;32528;45.712;9.192;2023-11-21T04:39:48;10.90;99.70
28460;DHT22;32528;45.712;9.192;2023-11-21T04:41:48;10.90;99.70
28460;DHT22;32528;45.712;9.192;2023-11-21T04:43:49;10.90;99.70
28460;DHT22;32528;45.712;9.192;2023-11-21T04:45:50;10.80;99.70
28460;DHT22;32528;45.712;9.192;2023-11-21T04:47:50;10.80;99.90
28460;DHT22;32528;45.712;9.192;2023-11-21T04:49:53;10.70;99.90
28460;DHT22;32528;45.712;9.192;2023-11-21T04:51:53;10.60;99.90
28460;DHT22;32528;45.712;9.192;2023-11-21T04:53:54;10.60;99.90
28460;DHT22;32528;45.712;9.192;2023-11-21T04:55:55;10.60;99.90
28460;DHT22;32528;45.712;9.192;2023-11-21T04:57:56;10.60;99.90
28460;DHT22;32528;45.712;9.192;2023-11-21T04:59:56;10.60;99.90
28460;DHT22;32528;45.712;9.192;2023-11-21T05:01:57;10.60;99.90
28460;DHT22;32528;45.712;9.192;2023-11-21T05:03:58;10.70;99.90
28460;DHT22;32528;45.712;9.192;2023-11-21T05:05:59;10.70;99.90
28460;DHT22;32528;45.712;9.192;2023-11-21T05:08:00;10.70;99.90
28460;DHT22;32528;45.712;9.192;2023-11-21T05:10:03;10.70;99.90
28460;DHT22;32528;45.712;9.192;2023-11-21T05:12:04;10.60;99.90
28460;DHT22;32528;45.712;9.192;2023-11-21T05:14:05;10.60;99.90
28460;DHT22;32528;45.712;9.192;2023-11-21T05:16:06;10.70;99.90
28460;DHT22;32528;45.712;9.192;2023-11-21T05:18:07;10.80;99.80
28460;DHT22;32528;45.712;9.192;2023-11-21T05:20:09;10.70;99.80
28460;DHT22;32528;45.712;9.192;2023-11-21T05:22:11;10.70;99.80
28460;DHT22;32528;45.712;9.192;2023-11-21T05:24:12;10.70;99.90
28460;DHT22;32528;45.712;9.192;2023-11-21T05:26:13;10.60;99.90
28460;DHT22;32528;45.712;9.192;2023-11-21T05:28:14;10.60;99.90
28460;DHT22;32528;45.712;9.192;2023-11-21T05:30:15;10.50;99.90
28460;DHT22;32528;45.712;9.192;2023-11-21T05:32:15;10.50;99.90
28460;DHT22;32528;45.712;9.192;2023-11-21T05:34:17;10.50;99.90
28460;DHT22;32528;45.712;9.192;2023-11-21T05:36:18;10.50;99.90
28460;DHT22;32528;45.712;9.192;2023-11-21T05:38:19;10.60;99.90
28460;DHT22;32528;45.712;9.192;2023-11-21T05:40:22;10.70;99.90
28460;DHT22;32528;45.712;9.192;2023-11-21T05:42:23;10.70;99.90
28460;DHT22;32528;45.712;9.192;2023-11-21T05:44:24;10.70;99.90
28460;DHT22;32528;45.712;9.192;2023-11-21T05:46:25;10.80;99.80
28460;DHT22;32528;45.712;9.192;2023-11-21T05:48:26;10.70;99.90
28460;DHT22;32528;45.712;9.192;2023-11-21T05:50:27;10.60;99.90
28460;DHT22;32528;45.712;9.192;2023-11-21T05:52:28;10.50;99.90
28460;DHT22;32528;45.712;9.192;2023-11-21T05:54:29;10.50;99.90
28460;DHT22;32528;45.712;9.192;2023-11-21T05:56:30;10.60;99.90
28460;DHT22;32528;45.712;9.192;2023-11-21T05:58:31;10.50;99.90
28460;DHT22;32528;45.712;9.192;2023-11-21T06:00:31;10.60;99.90
28460;DHT22;32528;45.712;9.192;2023-11-21T06:02:33;10.60;99.90
28460;DHT22;32528;45.712;9.192;2023-11-21T06:04:33;10.60;99.90
28460;DHT22;32528;45.712;9.192;2023-11-21T06:06:34;10.60;99.90
28460;DHT22;32528;45.712;9.192;2023-11-21T06:08:35;10.50;99.90
28460;DHT22;32528;45.712;9.192;2023-11-21T06:10:35;10.60;99.90
28460;DHT22;32528;45.712;9.192;2023-11-21T06:12:36;10.60;99.90
28460;DHT22;32528;45.712;9.192;2023-11-21T06:14:37;10.60;99.90
28460;DHT22;32528;45.712;9.192;2023-11-21T06:16:38;10.60;99.90
28460;DHT22;32528;45.712;9.192;2023-11-21T06:18:40;10.40;99.90
28460;DHT22;32528;45.712;9.192;2023-11-21T06:20:41;10.60;99.90
28460;DHT22;32528;45.712;9.192;2023-11-21T06:22:42;10.40;99.90
28460;DHT22;32528;45.712;9.192;2023-11-21T06:24:43;10.40;99.90
28460;DHT22;32528;45.712;9.192;2023-11-21T06:26:44;10.30;99.90
28460;DHT22;32528;45.712;9.192;2023-11-21T06:28:44;10.40;99.90
28460;DHT22;32528;45.712;9.192;2023-11-21T06:30:45;10.40;99.90
28460;DHT22;32528;45.712;9.192;2023-11-21T06:32:46;10.40;99.90
28460;DHT22;32528;45.712;9.192;2023-11-21T06:34:47;10.40;99.90
28460;DHT22;32528;45.712;9.192;2023-11-21T06:36:47;10.40;99.90
28460;DHT22;32528;45.712;9.192;2023-11-21T06:38:48;10.30;99.90
28460;DHT22;32528;45.712;9.192;2023-11-21T06:40:49;10.30;99.90
28460;DHT22;32528;45.712;9.192;2023-11-21T06:42:50;10.40;99.90
28460;DHT22;32528;45.712;9.192;2023-11-21T06:44:51;10.40;99.90
28460;DHT22;32528;45.712;9.192;2023-11-21T06:46:52;10.40;99.90
28460;DHT22;32528;45.712;9.192;2023-11-21T06:48:53;10.40;99.90
28460;DHT22;32528;45.712;9.192;2023-11-21T06:50:53;10.40;99.90
28460;DHT22;32528;45.712;9.192;2023-11-21T06:52:54;10.40;99.90
28460;DHT22;32528;45.712;9.192;2023-11-21T06:54:55;10.40;99.90
28460;DHT22;32528;45.712;9.192;2023-11-21T06:56:56;10.40;99.90
28460;DHT22;32528;45.712;9.192;2023-11-21T06:58:57;10.50;99.90
28460;DHT22;32528;45.712;9.192;2023-11-21T07:00:57;10.50;99.90
28460;DHT22;32528;45.712;9.192;2023-11-21T07:02:58;10.50;99.90
28460;DHT22;32528;45.712;9.192;2023-11-21T07:04:59;10.50;99.90
28460;DHT22;32528;45.712;9.192;2023-11-21T07:07:00;10.60;99.90
28460;DHT22;32528;45.712;9.192;2023-11-21T07:09:01;10.70;99.90
28460;DHT22;32528;45.712;9.192;2023-11-21T07:11:04;10.70;99.90
28460;DHT22;32528;45.712;9.192;2023-11-21T07:13:05;10.80;99.90
28460;DHT22;32528;45.712;9.192;2023-11-21T07:15:06;10.90;99.80
28460;DHT22;32528;45.712;9.192;2023-11-21T07:17:09;10.90;99.70
28460;DHT22;32528;45.712;9.192;2023-11-21T07:19:10;10.70;99.70
28460;DHT22;32528;45.712;9.192;2023-11-21T07:21:12;10.70;99.90
28460;DHT22;32528;45.712;9.192;2023-11-21T07:23:13;10.60;99.90
28460;DHT22;32528;45.712;9.192;2023-11-21T07:25:15;10.60;99.90
28460;DHT22;32528;45.712;9.192;2023-11-21T07:27:17;10.60;99.90
28460;DHT22;32528;45.712;9.192;2023-11-21T07:29:17;10.60;99.80
28460;DHT22;32528;45.712;9.192;2023-11-21T07:31:18;10.70;99.80
28460;DHT22;32528;45.712;9.192;2023-11-21T07:33:19;10.70;99.80
28460;DHT22;32528;45.712;9.192;2023-11-21T07:35:21;10.60;99.80
28460;DHT22;32528;45.712;9.192;2023-11-21T07:37:22;10.60;99.90
28460;DHT22;32528;45.712;9.192;2023-11-21T07:39:23;10.50;99.90
28460;DHT22;32528;45.712;9.192;2023-11-21T07:41:24;10.50;99.90
28460;DHT22;32528;45.712;9.192;2023-11-21T07:43:25;10.40;99.90
28460;DHT22;32528;45.712;9.192;2023-11-21T07:45:26;10.40;99.90
28460;DHT22;32528;45.712;9.192;2023-11-21T07:47:28;10.40;99.90
28460;DHT22;32528;45.712;9.192;2023-11-21T07:49:28;10.40;99.90
28460;DHT22;32528;45.712;9.192;2023-11-21T07:51:29;10.30;99.90
28460;DHT22;32528;45.712;9.192;2023-11-21T07:53:30;10.40;99.90
28460;DHT22;32528;45.712;9.192;2023-11-21T07:55:31;10.40;99.90
28460;DHT22;32528;45.712;9.192;2023-11-21T07:57:32;10.40;99.90
28460;DHT22;32528;45.712;9.192;2023-11-21T07:59:33;10.40;99.90
28460;DHT22;32528;45.712;9.192;2023-11-21T08:01:34;10.50;99.90
28460;DHT22;32528;45.712;9.192;2023-11-21T08:03:35;10.50;99.90
28460;DHT22;32528;45.712;9.192;2023-11-21T08:05:35;10.50;99.90
28460;DHT22;32528;45.712;9.192;2023-11-21T08:07:36;10.50;99.90
28460;DHT22;32528;45.712;9.192;2023-11-21T08:09:37;10.50;99.90
28460;DHT22;32528;45.712;9.192;2023-11-21T08:11:38;10.60;99.90
28460;DHT22;32528;45.712;9.192;2023-11-21T08:13:39;10.60;99.80
28460;DHT22;32528;45.712;9.192;2023-11-21T08:15:40;10.60;99.80
28460;DHT22;32528;45.712;9.192;2023-11-21T08:17:41;10.60;99.80
28460;DHT22;32528;45.712;9.192;2023-11-21T08:19:41;10.70;99.90
28460;DHT22;32528;45.712;9.192;2023-11-21T08:21:42;10.60;99.90
28460;DHT22;32528;45.712;9.192;2023-11-21T08:23:43;10.60;99.90
28460;DHT22;32528;45.712;9.192;2023-11-21T08:25:44;10.60;99.90
28460;DHT22;32528;45.712;9.192;2023-11-21T08:27:45;10.70;99.90
28460;DHT22;32528;45.712;9.192;2023-11-21T08:29:46;10.70;99.90
28460;DHT22;32528;45.712;9.192;2023-11-21T08:31:46;10.70;99.90
28460;DHT22;32528;45.712;9.192;2023-11-21T08:33:47;10.80;99.90
28460;DHT22;32528;45.712;9.192;2023-11-21T08:35:48;10.80;99.60
28460;DHT22;32528;45.712;9.192;2023-11-21T08:37:51;10.80;99.60
28460;DHT22;32528;45.712;9.192;2023-11-21T08:39:53;10.80;99.60
28460;DHT22;32528;45.712;9.192;2023-11-21T08:41:54;10.80;99.50
28460;DHT22;32528;45.712;9.192;2023-11-21T08:43:55;10.80;99.50
28460;DHT22;32528;45.712;9.192;2023-11-21T08:45:56;10.80;99.40
28460;DHT22;32528;45.712;9.192;2023-11-21T08:47:57;10.80;99.50
28460;DHT22;32528;45.712;9.192;2023-11-21T08:49:57;10.70;99.50
28460;DHT22;32528;45.712;9.192;2023-11-21T08:51:59;10.70;99.60
28460;DHT22;32528;45.712;9.192;2023-11-21T08:54:00;10.70;99.60
28460;DHT22;32528;45.712;9.192;2023-11-21T08:56:05;10.90;99.60
28460;DHT22;32528;45.712;9.192;2023-11-21T08:58:06;10.90;99.40
28460;DHT22;32528;45.712;9.192;2023-11-21T09:00:07;11.00;99.20
28460;DHT22;32528;45.712;9.192;2023-11-21T09:02:11;11.20;99.20
28460;DHT22;32528;45.712;9.192;2023-11-21T09:04:12;11.30;98.80
28460;DHT22;32528;45.712;9.192;2023-11-21T09:06:13;11.50;98.60
28460;DHT22;32528;45.712;9.192;2023-11-21T09:08:14;11.50;98.50
28460;DHT22;32528;45.712;9.192;2023-11-21T09:10:15;11.70;98.40
28460;DHT22;32528;45.712;9.192;2023-11-21T09:12:16;11.70;98.20
28460;DHT22;32528;45.712;9.192;2023-11-21T09:14:17;11.70;98.00
28460;DHT22;32528;45.712;9.192;2023-11-21T09:16:18;11.80;97.90
28460;DHT22;32528;45.712;9.192;2023-11-21T09:18:19;11.80;97.90
28460;DHT22;32528;45.712;9.192;2023-11-21T09:20:19;11.90;97.70
28460;DHT22;32528;45.712;9.192;2023-11-21T09:22:23;11.90;97.60
28460;DHT22;32528;45.712;9.192;2023-11-21T09:24:25;12.10;97.60
28460;DHT22;32528;45.712;9.192;2023-11-21T09:26:26;12.10;97.30
28460;DHT22;32528;45.712;9.192;2023-11-21T09:28:27;12.10;97.30
28460;DHT22;32528;45.712;9.192;2023-11-21T09:30:28;12.10;97.40
28460;DHT22;32528;45.712;9.192;2023-11-21T09:32:29;12.10;97.50
28460;DHT22;32528;45.712;9.192;2023-11-21T09:34:30;12.10;97.50
28460;DHT22;32528;45.712;9.192;2023-11-21T09:36:32;12.10;97.40
28460;DHT22;32528;45.712;9.192;2023-11-21T09:38:34;12.10;97.20
28460;DHT22;32528;45.712;9.192;2023-11-21T09:40:36;12.10;97.20
28460;DHT22;32528;45.712;9.192;2023-11-21T09:42:48;12.20;97.20
28460;DHT22;32528;45.712;9.192;2023-11-21T09:45:03;12.20;97.00
28460;DHT22;32528;45.712;9.192;2023-11-21T09:47:05;12.30;97.20
28460;DHT22;32528;45.712;9.192;2023-11-21T09:49:11;12.30;96.90
28460;DHT22;32528;45.712;9.192;2023-11-21T09:51:14;12.40;96.60
28460;DHT22;32528;45.712;9.192;2023-11-21T09:53:21;12.60;96.30
28460;DHT22;32528;45.712;9.192;2023-11-21T09:55:22;12.60;96.30
28460;DHT22;32528;45.712;9.192;2023-11-21T09:57:25;12.60;96.20
28460;DHT22;32528;45.712;9.192;2023-11-21T09:59:30;12.50;96.10
28460;DHT22;32528;45.712;9.192;2023-11-21T10:01:32;12.50;96.30
28460;DHT22;32528;45.712;9.192;2023-11-21T10:03:35;12.60;96.70
28460;DHT22;32528;45.712;9.192;2023-11-21T10:05:40;12.60;96.40
28460;DHT22;32528;45.712;9.192;2023-11-21T10:07:43;12.60;96.20
28460;DHT22;32528;45.712;9.192;2023-11-21T10:09:46;12.50;96.30
28460;DHT22;32528;45.712;9.192;2023-11-21T10:11:47;12.50;96.40
28460;DHT22;32528;45.712;9.192;2023-11-21T10:13:52;12.60;96.60
28460;DHT22;32528;45.712;9.192;2023-11-21T10:15:54;12.70;96.30
28460;DHT22;32528;45.712;9.192;2023-11-21T10:17:55;12.70;96.20
28460;DHT22;32528;45.712;9.192;2023-11-21T10:19:56;12.80;95.90
28460;DHT22;32528;45.712;9.192;2023-11-21T10:21:58;12.90;95.60
28460;DHT22;32528;45.712;9.192;2023-11-21T10:24:01;13.10;95.50
28460;DHT22;32528;45.712;9.192;2023-11-21T10:26:03;13.10;95.40
28460;DHT22;32528;45.712;9.192;2023-11-21T10:28:04;13.10;95.40
28460;DHT22;32528;45.712;9.192;2023-11-21T10:30:08;13.10;95.30
28460;DHT22;32528;45.712;9.192;2023-11-21T10:32:12;13.10;95.30
28460;DHT22;32528;45.712;9.192;2023-11-21T10:34:18;13.20;95.40
28460;DHT22;32528;45.712;9.192;2023-11-21T10:36:26;13.20;95.20
28460;DHT22;32528;45.712;9.192;2023-11-21T10:38:27;13.30;95.20
28460;DHT22;32528;45.712;9.192;2023-11-21T10:40:30;13.30;95.20
28460;DHT22;32528;45.712;9.192;2023-11-21T10:42:32;13.40;95.10
28460;DHT22;32528;45.712;9.192;2023-11-21T10:44:34;13.40;95.40
28460;DHT22;32528;45.712;9.192;2023-11-21T10:46:35;13.30;94.80
28460;DHT22;32528;45.712;9.192;2023-11-21T10:48:35;13.30;95.10
28460;DHT22;32528;45.712;9.192;2023-11-21T10:50:37;13.30;95.10
28460;DHT22;32528;45.712;9.192;2023-11-21T10:52:40;13.40;94.80
28460;DHT22;32528;45.712;9.192;2023-11-21T10:54:43;13.40;94.80
28460;DHT22;32528;45.712;9.192;2023-11-21T10:56:45;13.40;94.60
28460;DHT22;32528;45.712;9.192;2023-11-21T10:58:48;13.40;94.70
28460;DHT22;32528;45.712;9.192;2023-11-21T11:00:49;13.50;94.60
28460;DHT22;32528;45.712;9.192;2023-11-21T11:02:52;13.50;94.50
28460;DHT22;32528;45.712;9.192;2023-11-21T11:04:54;13.60;94.60
28460;DHT22;32528;45.712;9.192;2023-11-21T11:07:02;13.70;94.40
28460;DHT22;32528;45.712;9.192;2023-11-21T11:09:04;13.70;93.90
28460;DHT22;32528;45.712;9.192;2023-11-21T11:11:06;13.70;94.00
28460;DHT22;32528;45.712;9.192;2023-11-21T11:13:07;13.80;94.20
28460;DHT22;32528;45.712;9.192;2023-11-21T11:15:08;13.70;93.90
28460;DHT22;32528;45.712;9.192;2023-11-21T11:17:13;13.70;93.90
28460;DHT22;32528;45.712;9.192;2023-11-21T11:19:14;13.80;93.90
28460;DHT22;32528;45.712;9.192;2023-11-21T11:25:53;13.80;93.50
28460;DHT22;32528;45.712;9.192;2023-11-21T11:28:17;13.80;93.70
28460;DHT22;32528;45.712;9.192;2023-11-21T11:35:34;13.80;93.60
28460;DHT22;32528;45.712;9.192;2023-11-21T11:37:38;13.90;93.50
28460;DHT22;32528;45.712;9.192;2023-11-21T11:39:41;13.80;93.70
28460;DHT22;32528;45.712;9.192;2023-11-21T11:41:44;14.00;93.60
28460;DHT22;32528;45.712;9.192;2023-11-21T11:43:44;14.10;93.60
28460;DHT22;32528;45.712;9.192;2023-11-21T11:45:46;14.00;93.20
28460;DHT22;32528;45.712;9.192;2023-11-21T11:47:56;13.90;93.20
28460;DHT22;32528;45.712;9.192;2023-11-21T11:50:06;14.00;93.40
28460;DHT22;32528;45.712;9.192;2023-11-21T11:54:35;14.10;92.90
28460;DHT22;32528;45.712;9.192;2023-11-21T11:56:37;14.00;93.70
28460;DHT22;32528;45.712;9.192;2023-11-21T11:58:41;14.10;93.10
28460;DHT22;32528;45.712;9.192;2023-11-21T12:00:42;14.20;92.90
28460;DHT22;32528;45.712;9.192;2023-11-21T12:02:47;14.30;92.90
28460;DHT22;32528;45.712;9.192;2023-11-21T12:04:48;14.30;93.10
28460;DHT22;32528;45.712;9.192;2023-11-21T12:06:54;14.30;93.20
28460;DHT22;32528;45.712;9.192;2023-11-21T12:09:01;14.30;93.10
28460;DHT22;32528;45.712;9.192;2023-11-21T12:11:05;14.30;93.30
28460;DHT22;32528;45.712;9.192;2023-11-21T12:13:07;14.20;93.00
28460;DHT22;32528;45.712;9.192;2023-11-21T12:15:08;14.20;93.10
28460;DHT22;32528;45.712;9.192;2023-11-21T12:17:09;14.20;93.00
28460;DHT22;32528;45.712;9.192;2023-11-21T12:19:13;14.30;92.80
28460;DHT22;32528;45.712;9.192;2023-11-21T12:21:14;14.20;93.10
28460;DHT22;32528;45.712;9.192;2023-11-21T12:23:16;14.20;93.20
28460;DHT22;32528;45.712;9.192;2023-11-21T12:25:19;14.20;93.30
28460;DHT22;32528;45.712;9.192;2023-11-21T12:27:21;14.20;93.30
28460;DHT22;32528;45.712;9.192;2023-11-21T12:29:21;14.20;93.10
28460;DHT22;32528;45.712;9.192;2023-11-21T12:31:23;14.30;93.00
28460;DHT22;32528;45.712;9.192;2023-11-21T12:33:23;14.30;93.00
28460;DHT22;32528;45.712;9.192;2023-11-21T12:35:31;14.40;93.00
28460;DHT22;32528;45.712;9.192;2023-11-21T12:37:34;14.40;92.90
28460;DHT22;32528;45.712;9.192;2023-11-21T12:39:35;14.40;93.00
28460;DHT22;32528;45.712;9.192;2023-11-21T12:41:35;14.40;93.00
28460;DHT22;32528;45.712;9.192;2023-11-21T12:43:36;14.40;92.90
28460;DHT22;32528;45.712;9.192;2023-11-21T12:45:39;14.30;92.70
28460;DHT22;32528;45.712;9.192;2023-11-21T12:47:41;14.30;92.90
28460;DHT22;32528;45.712;9.192;2023-11-21T12:49:42;14.30;92.60
28460;DHT22;32528;45.712;9.192;2023-11-21T12:51:46;14.40;92.60
28460;DHT22;32528;45.712;9.192;2023-11-21T12:53:47;14.40;92.40
28460;DHT22;32528;45.712;9.192;2023-11-21T12:55:48;14.50;92.50
28460;DHT22;32528;45.712;9.192;2023-11-21T12:57:53;14.50;92.60
28460;DHT22;32528;45.712;9.192;2023-11-21T12:59:58;14.40;92.50